Terminal Aerodrome Forecast
Issued by NWS

Home | Current Version | Previous Version | Text Only | Print | Product List | Glossary On
Versions: 1 2 3 4 5 6 7 8 9 10 11 12 13 14 15 16 17
000
FTUS41 KPBZ 030524
TAFDUJ
TAF
KDUJ 030524Z 0306/0406 23011G17KT P6SM BKN250
     FM031500 22009G17KT P6SM VCSH BKN050
     FM031900 23012G20KT 6SM -SHRA VCTS BKN040CB
     FM040100 25008KT P6SM BKN040=

USA.gov is the U.S. government's official web portal to all federal, state and local government web resources and services.